Flight Track Log - Related Links

Times and Time Zones

All times are in EST time to prevent confusion due to time zone crossing. See the UCA3597 flight status page for this flight to view local times or setup timezone preferences in your user account.

Time Position Orientation Groundspeed Altitude Reporting Facility
EST Latitude Longitude Course Direction KTS MPH feet Rate Location/Type
Tue 05:52:00 PM 39.6441 -77.1563 19° North  Level Estimated
Tue 05:53:00 PM 39.7137 -77.1256 19° North  Level Estimated
Tue 05:54:00 PM 39.7665 -77.1023 19° North  Level Estimated
Tue 05:55:00 PM 39.8192 -77.0789 19° North  Level Estimated
Tue 05:56:00 PM 39.8720 -77.0555 19° North  Level Estimated
Tue 05:57:00 PM 39.9248 -77.0321 19° North  Level Estimated
Tue 05:58:00 PM 39.9775 -77.0087 19° North  Level Estimated
Tue 05:59:00 PM 40.0303 -76.9852 19° North  Level Estimated
Tue 06:00:00 PM 40.0830 -76.9616 19° North  Level Estimated
Tue 06:01:00 PM 40.1357 -76.9381 19° North  Level Estimated
Tue 06:02:00 PM 40.1885 -76.9145 19° North  Level Estimated
Tue 06:03:00 PM 40.2412 -76.8908 19° North  Level Estimated
Tue 06:04:00 PM 40.2939 -76.8671 19° North  Level Estimated
Tue 06:05:00 PM 40.3466 -76.8434 19° North  Level Estimated
Tue 06:06:00 PM 40.3993 -76.8197 19° North  Level Estimated
Tue 06:07:00 PM 40.4520 -76.7959 19° North  Level Estimated
Tue 06:08:00 PM 40.5047 -76.7721 19° North  Level Estimated
Tue 06:09:00 PM 40.5574 -76.7482 19° North  Level Estimated
Tue 06:10:00 PM 40.6101 -76.7243 19° North  Level Estimated
Tue 06:11:00 PM 40.6628 -76.7004 19° North  Level Estimated
Tue 06:12:00 PM 40.7155 -76.6764 19° North  Level Estimated
Tue 06:13:00 PM 40.7682 -76.6524 19° North  Level Estimated
Tue 06:14:00 PM 40.8209 -76.6283 19° North  Level Estimated
Tue 06:15:00 PM 40.8735 -76.6042 19° North  Level Estimated
Tue 06:16:00 PM 40.9262 -76.5801 19° North  Level Estimated
Tue 06:17:00 PM 40.9789 -76.5559 19° North  Level Estimated
Tue 06:18:00 PM 41.0315 -76.5317 19° North  Level Estimated
Tue 06:19:00 PM 41.0841 -76.5075 19° North  Level Estimated
Tue 06:20:00 PM 41.1368 -76.4832 19° North  Level Estimated
Tue 06:21:00 PM 41.1894 -76.4589 19° North  Level Estimated
Tue 06:22:00 PM 41.2421 -76.4345 19° North  Level Estimated
Tue 06:23:00 PM 41.2947 -76.4101 19° North  Level Estimated
Tue 06:24:00 PM 41.3473 -76.3857 19° North  Level Estimated
Tue 06:25:00 PM 41.3999 -76.3612 19° North  Level Estimated
Tue 06:26:00 PM 41.4525 -76.3367 19° North  Level Estimated
Tue 06:27:00 PM 41.5051 -76.3121 19° North  Level Estimated
Tue 06:28:00 PM 41.5578 -76.2875 19° North  Level Estimated
Tue 06:29:00 PM 41.6104 -76.2629 19° North  Level Estimated
Tue 06:30:00 PM 41.6629 -76.2382 19° North  Level Estimated
Tue 06:31:00 PM 41.7155 -76.2135 19° North  Level Estimated
Tue 06:32:00 PM 41.7681 -76.1887 19° North  Level Estimated
Tue 06:33:00 PM 41.8207 -76.1639 19° North  Level Estimated
Tue 06:34:00 PM 41.8732 -76.1391 19° North  Level Estimated
Tue 06:35:00 PM 41.9258 -76.1142 19° North  Level Estimated
Tue 06:36:00 PM 41.9784 -76.0892 19° North  Level Estimated
Tue 06:37:00 PM 42.0309 -76.0643 19° North  Level Estimated
Tue 06:38:00 PM 42.0835 -76.0393 19° North  Level Estimated

Login

Don't have an account? Register now (free) for customized features, flight alerts, and more!